createdAt,value
2018-03-25T00:00:03.859Z,7.33
2018-03-25T00:05:11.037Z,7.53
2018-03-25T00:10:14.270Z,7.50
2018-03-25T00:15:17.968Z,6.93
2018-03-25T00:20:21.258Z,7.80
2018-03-25T00:25:24.474Z,7.47
2018-03-25T00:30:27.726Z,7.40
2018-03-25T00:35:30.966Z,6.67
2018-03-25T00:40:36.331Z,8.20
2018-03-25T00:45:39.569Z,8.13
2018-03-25T00:50:43.204Z,7.63
2018-03-25T00:55:46.523Z,8.17
2018-03-25T01:00:50.450Z,7.50
2018-03-25T01:05:53.692Z,8.87
2018-03-25T01:10:56.992Z,8.20
2018-03-25T01:16:10.170Z,8.77
2018-03-25T01:21:13.977Z,8.30
2018-03-25T01:26:17.205Z,9.47
2018-03-25T01:31:20.428Z,8.90
2018-03-25T01:36:23.670Z,7.70
2018-03-25T01:41:26.900Z,8.00
2018-03-25T01:46:30.111Z,8.13
2018-03-25T01:51:33.315Z,8.03
2018-03-25T01:56:36.618Z,8.67
2018-03-25T02:01:39.890Z,9.30
2018-03-25T02:06:43.121Z,7.93
2018-03-25T02:11:46.330Z,8.93
2018-03-25T02:16:49.558Z,9.30
2018-03-25T02:21:53.183Z,8.57
2018-03-25T02:26:56.394Z,8.23
2018-03-25T02:31:59.618Z,9.63
2018-03-25T02:37:02.824Z,9.23
2018-03-25T02:42:06.079Z,9.30
2018-03-25T02:47:09.315Z,9.60
2018-03-25T02:52:12.520Z,8.97
2018-03-25T02:57:15.795Z,8.63
2018-03-25T03:02:19.042Z,10.23
2018-03-25T03:07:22.273Z,9.70
2018-03-25T03:12:25.619Z,10.80
2018-03-25T03:17:28.839Z,9.10
2018-03-25T03:22:32.498Z,8.03
2018-03-25T03:27:36.467Z,9.80
2018-03-25T03:32:40.105Z,8.50
2018-03-25T03:37:43.312Z,9.80
2018-03-25T03:42:46.526Z,9.27
2018-03-25T03:47:49.855Z,9.97
2018-03-25T03:52:53.086Z,11.17
2018-03-25T03:57:56.409Z,8.70
2018-03-25T04:02:59.717Z,9.07
2018-03-25T04:08:02.943Z,9.50
2018-03-25T04:13:06.656Z,8.33
2018-03-25T04:18:10.050Z,8.93
2018-03-25T04:23:13.272Z,10.73
2018-03-25T04:28:16.901Z,10.40
2018-03-25T04:33:20.124Z,10.00
2018-03-25T04:38:23.384Z,8.97
2018-03-25T04:43:26.710Z,10.47
2018-03-25T04:48:30.327Z,9.73
2018-03-25T04:53:35.006Z,9.47
2018-03-25T04:58:38.227Z,9.63
2018-03-25T05:03:41.468Z,10.50
2018-03-25T05:08:45.090Z,9.70
2018-03-25T05:13:48.896Z,11.40
2018-03-25T05:18:52.691Z,10.30
2018-03-25T05:23:55.910Z,10.47
2018-03-25T05:28:59.164Z,10.43
2018-03-25T05:34:02.459Z,11.47
2018-03-25T05:39:06.089Z,11.07
2018-03-25T05:44:09.303Z,11.67
2018-03-25T05:49:12.538Z,10.60
2018-03-25T05:54:15.777Z,10.07
2018-03-25T05:59:19.407Z,10.77
2018-03-25T06:04:22.684Z,11.70
2018-03-25T06:09:25.909Z,10.37
2018-03-25T06:14:29.542Z,10.90
2018-03-25T06:19:32.756Z,11.40
2018-03-25T06:24:36.330Z,11.10
2018-03-25T06:29:39.953Z,13.30
2018-03-25T06:34:43.574Z,11.40
2018-03-25T06:39:46.797Z,12.30
2018-03-25T06:44:50.068Z,14.10
2018-03-25T06:49:53.968Z,10.60
2018-03-25T06:54:57.192Z,12.00
2018-03-25T07:00:00.414Z,13.73
2018-03-25T07:05:04.066Z,12.07
2018-03-25T07:10:07.320Z,12.33
2018-03-25T07:15:10.587Z,12.43
2018-03-25T07:20:13.808Z,12.90
2018-03-25T07:25:17.035Z,13.83
2018-03-25T07:30:20.281Z,12.77
2018-03-25T07:35:23.521Z,13.97
2018-03-25T07:40:26.761Z,13.00
2018-03-25T07:45:30.434Z,13.13
2018-03-25T07:50:33.781Z,12.63
2018-03-25T07:55:37.022Z,14.17
2018-03-25T08:00:40.292Z,13.73
2018-03-25T08:05:43.569Z,12.77
2018-03-25T08:10:46.804Z,12.77
2018-03-25T08:15:50.092Z,13.40
2018-03-25T08:20:53.310Z,14.17
2018-03-25T08:25:56.533Z,13.90
2018-03-25T08:31:00.238Z,15.07
2018-03-25T08:36:03.482Z,15.53
2018-03-25T08:41:06.954Z,14.70
2018-03-25T08:46:10.261Z,13.00
2018-03-25T08:51:13.496Z,13.97
2018-03-25T08:56:16.799Z,13.77
2018-03-25T09:01:20.464Z,14.13
2018-03-25T09:06:23.676Z,13.27
2018-03-25T09:11:27.004Z,12.83
2018-03-25T09:16:30.325Z,13.57
2018-03-25T09:21:34.028Z,12.50
2018-03-25T09:26:37.648Z,13.00
2018-03-25T09:31:41.264Z,13.43
2018-03-25T09:36:44.989Z,13.53
2018-03-25T09:41:48.691Z,13.63
2018-03-25T09:46:52.313Z,13.70
2018-03-25T09:51:55.925Z,14.50
2018-03-25T09:56:59.685Z,13.83
2018-03-25T10:02:04.733Z,12.80
2018-03-25T10:07:08.022Z,13.47
2018-03-25T10:12:11.268Z,12.60
2018-03-25T10:17:14.476Z,12.67
2018-03-25T10:22:18.260Z,13.33
2018-03-25T10:27:21.499Z,12.87
2018-03-25T10:32:24.737Z,13.07
2018-03-25T10:37:28.362Z,14.00
2018-03-25T10:42:33.295Z,12.50
2018-03-25T10:47:36.935Z,12.93
2018-03-25T10:52:40.212Z,12.43
2018-03-25T10:57:43.864Z,14.87
2018-03-25T11:02:47.134Z,13.23
2018-03-25T11:13:00.442Z,13.17
2018-03-25T11:18:03.688Z,13.63
2018-03-25T11:23:06.950Z,12.67
2018-03-25T11:28:10.206Z,13.57
2018-03-25T11:33:13.531Z,12.50
2018-03-25T11:38:17.162Z,12.32
2018-03-25T11:43:20.890Z,14.75
2018-03-25T11:48:24.124Z,13.00
2018-03-25T11:53:27.686Z,13.52
2018-03-25T11:58:31.316Z,13.98
2018-03-25T12:03:34.739Z,13.90
2018-03-25T12:08:37.969Z,13.60
2018-03-25T12:13:41.237Z,12.88
2018-03-25T12:18:44.865Z,13.85
2018-03-25T12:23:48.099Z,14.25
2018-03-25T12:28:51.344Z,12.32
2018-03-25T12:33:54.989Z,12.73
2018-03-25T12:38:58.223Z,12.90
2018-03-25T12:44:01.574Z,11.95
2018-03-25T13:00:38.672Z,11.95
2018-03-25T13:05:44.298Z,13.30
2018-03-25T13:10:47.634Z,14.10
2018-03-25T13:15:51.339Z,13.23
2018-03-25T13:20:54.911Z,12.32
2018-03-25T13:25:58.250Z,11.55
2018-03-25T13:31:01.764Z,10.45
2018-03-25T13:36:05.487Z,10.20
2018-03-25T13:41:09.306Z,9.32
2018-03-25T13:46:12.617Z,10.40
2018-03-25T13:51:16.330Z,9.13
2018-03-25T13:56:20.012Z,8.60
2018-03-25T14:01:23.504Z,10.75
2018-03-25T14:06:26.735Z,10.48
2018-03-25T14:11:30.029Z,10.07
2018-03-25T14:16:35.412Z,9.50
2018-03-25T14:21:38.629Z,10.25
2018-03-25T14:26:42.344Z,9.57
2018-03-25T14:31:46.032Z,8.85
2018-03-25T14:36:49.269Z,9.30
2018-03-25T14:41:52.916Z,9.65
2018-03-25T14:46:56.171Z,9.73
2018-03-25T14:51:59.435Z,9.27
2018-03-25T14:57:02.674Z,8.68
2018-03-25T15:02:06.001Z,8.65
2018-03-25T15:07:09.618Z,8.93
2018-03-25T15:12:13.294Z,8.15
2018-03-25T15:17:16.528Z,8.40
2018-03-25T15:22:19.780Z,9.50
2018-03-25T15:27:23.100Z,8.73
2018-03-25T15:32:26.353Z,8.43
2018-03-25T15:37:29.598Z,8.98
2018-03-25T15:42:32.841Z,11.65
2018-03-25T15:47:36.087Z,9.35
2018-03-25T15:52:39.477Z,7.40
2018-03-25T15:57:42.736Z,7.37
2018-03-25T16:02:45.969Z,8.10
2018-03-25T16:07:49.224Z,6.83
2018-03-25T16:12:52.605Z,6.95
2018-03-25T16:17:55.829Z,7.47
2018-03-25T16:22:59.437Z,7.57
2018-03-25T16:28:03.045Z,6.37
2018-03-25T16:33:06.656Z,6.90
2018-03-25T16:38:10.374Z,6.97
2018-03-25T16:43:13.991Z,6.97
2018-03-25T16:48:17.607Z,6.57
2018-03-25T16:53:21.231Z,6.60
2018-03-25T16:58:24.932Z,9.90
2018-03-25T17:03:28.221Z,7.63
2018-03-25T17:08:32.465Z,6.53
2018-03-25T17:13:36.153Z,7.53
2018-03-25T17:18:39.443Z,6.70
2018-03-25T17:23:50.076Z,6.67
2018-03-25T17:28:53.884Z,6.50
2018-03-25T17:33:57.168Z,7.13
2018-03-25T17:39:03.572Z,6.57
2018-03-25T17:44:08.626Z,6.60
2018-03-25T17:49:14.803Z,6.93
2018-03-25T17:54:22.312Z,9.57
2018-03-25T17:59:31.888Z,7.00
2018-03-25T18:04:41.309Z,7.27
2018-03-25T18:09:48.699Z,7.00
2018-03-25T18:14:55.724Z,6.40
2018-03-25T18:19:59.665Z,6.37
2018-03-25T18:25:06.046Z,6.37
2018-03-25T18:30:10.497Z,5.33
2018-03-25T18:35:18.960Z,6.63
2018-03-25T18:40:24.987Z,5.80
2018-03-25T18:45:30.964Z,6.73
2018-03-25T18:50:37.936Z,6.27
2018-03-25T18:55:42.999Z,5.43
2018-03-25T19:00:47.210Z,6.30
2018-03-25T19:05:53.290Z,6.00
2018-03-25T19:10:59.206Z,6.13
2018-03-25T19:16:05.025Z,6.73
2018-03-25T19:21:12.335Z,7.93
2018-03-25T19:26:18.377Z,6.87
2018-03-25T19:31:27.616Z,5.97
2018-03-25T19:36:36.852Z,6.33
2018-03-25T19:41:41.476Z,6.67
2018-03-25T19:46:51.471Z,6.83
2018-03-25T19:51:56.895Z,6.97
2018-03-25T19:57:02.537Z,6.40
2018-03-25T20:02:07.619Z,6.97
2018-03-25T20:07:11.895Z,5.80
2018-03-25T20:12:18.949Z,5.43
2018-03-25T20:17:23.554Z,6.37
2018-03-25T20:22:28.815Z,5.43
2018-03-25T20:27:34.394Z,5.63
2018-03-25T20:32:41.856Z,5.40
2018-03-25T20:37:49.548Z,4.90
2018-03-25T20:42:55.960Z,5.33
2018-03-25T20:48:01.970Z,6.20
2018-03-25T20:53:08.504Z,5.80
2018-03-25T20:58:16.819Z,6.40
2018-03-25T21:03:22.617Z,5.93
2018-03-25T21:08:27.964Z,5.97
2018-03-25T21:13:41.405Z,6.03
2018-03-25T21:18:46.432Z,5.60
2018-03-25T21:23:50.981Z,5.40
2018-03-25T21:28:57.648Z,6.03
2018-03-25T21:34:02.040Z,7.03
2018-03-25T21:39:07.558Z,6.13
2018-03-25T21:44:13.699Z,5.77
2018-03-25T21:49:19.553Z,6.03
2018-03-25T21:54:26.684Z,4.97
2018-03-25T21:59:31.028Z,5.73
2018-03-25T22:04:40.496Z,6.13
2018-03-25T22:09:44.839Z,6.30
2018-03-25T22:14:48.223Z,6.60
2018-03-25T22:19:52.343Z,7.47
2018-03-25T22:24:56.102Z,6.60
2018-03-25T22:29:59.371Z,7.67
2018-03-25T22:35:03.076Z,7.97
2018-03-25T22:40:12.283Z,7.43
2018-03-25T22:45:17.252Z,7.80
2018-03-25T22:50:28.025Z,7.00
2018-03-25T22:55:32.321Z,7.97
2018-03-25T23:00:35.601Z,7.60
2018-03-25T23:05:40.130Z,8.27
2018-03-25T23:10:43.391Z,8.10
2018-03-25T23:15:46.646Z,8.27
2018-03-25T23:20:49.872Z,9.20
2018-03-25T23:25:53.103Z,9.47
2018-03-25T23:30:56.765Z,9.07
2018-03-25T23:36:00.019Z,8.57
2018-03-25T23:41:03.327Z,8.97
2018-03-25T23:46:06.632Z,8.73
2018-03-25T23:51:09.851Z,8.80
2018-03-25T23:56:13.629Z,9.63
